createdAt,value
2022-11-15T00:02:46.416Z,99118.06
2022-11-15T00:08:07.908Z,99115.47
2022-11-15T00:13:31.980Z,99104.47
2022-11-15T00:18:53.548Z,99105.09
2022-11-15T00:24:14.641Z,99098.97
2022-11-15T00:29:38.771Z,99105.69
2022-11-15T00:35:00.178Z,99097.66
2022-11-15T00:40:21.463Z,99094.91
2022-11-15T00:45:44.151Z,99085.69
2022-11-15T00:51:05.447Z,99094.91
2022-11-15T00:56:26.911Z,99082.44
2022-11-15T01:01:50.060Z,99075.50
2022-11-15T01:07:11.377Z,99070.78
2022-11-15T01:12:33.492Z,99063.38
2022-11-15T01:17:56.532Z,99060.91
2022-11-15T01:23:17.995Z,99061.06
2022-11-15T01:28:40.729Z,99058.34
2022-11-15T01:34:03.483Z,99048.44
2022-11-15T01:39:25.368Z,99050.22
2022-11-15T01:44:49.897Z,99057.19
2022-11-15T01:50:16.513Z,99045.84
2022-11-15T01:55:37.847Z,99030.91
2022-11-15T02:00:59.238Z,99023.97
2022-11-15T02:06:23.726Z,99028.97
2022-11-15T02:11:47.339Z,99020.22
2022-11-15T02:17:23.059Z,99010.34
2022-11-15T02:23:05.631Z,99010.84
2022-11-15T02:28:53.119Z,99014.91
2022-11-15T02:34:22.362Z,99014.75
2022-11-15T02:39:48.914Z,98993.66
2022-11-15T02:45:15.629Z,98988.19
2022-11-15T02:50:38.343Z,98984.94
2022-11-15T02:55:59.962Z,98975.84
2022-11-15T03:01:31.432Z,98979.75
2022-11-15T03:06:59.645Z,98981.03
2022-11-15T03:12:35.958Z,98970.78
2022-11-15T03:18:02.846Z,98974.22
2022-11-15T03:23:27.506Z,98967.59
2022-11-15T03:28:55.092Z,98954.63
2022-11-15T03:34:23.686Z,98961.28
2022-11-15T03:39:46.783Z,98958.56
2022-11-15T03:45:17.325Z,98952.59
2022-11-15T03:50:39.202Z,98954.88
2022-11-15T03:56:02.226Z,98949.19
2022-11-15T04:01:23.888Z,98945.63
2022-11-15T04:06:45.178Z,98946.41
2022-11-15T04:12:08.398Z,98942.38
2022-11-15T04:17:30.074Z,98934.78
2022-11-15T04:23:12.559Z,98948.03
2022-11-15T04:28:35.725Z,98937.50
2022-11-15T04:33:57.486Z,98941.56
2022-11-15T04:39:19.155Z,98941.56
2022-11-15T04:44:41.732Z,98927.00
2022-11-15T04:50:03.051Z,98918.28
2022-11-15T04:55:24.467Z,98928.47
2022-11-15T05:00:47.289Z,98919.72
2022-11-15T05:06:09.176Z,98917.59
2022-11-15T05:11:30.755Z,98911.03
2022-11-15T05:16:53.580Z,98915.56
2022-11-15T05:22:15.260Z,98913.91
2022-11-15T05:27:36.899Z,98895.97
2022-11-15T05:32:59.798Z,98896.31
2022-11-15T05:38:21.650Z,98900.97
2022-11-15T05:43:44.349Z,98905.34
2022-11-15T05:49:10.201Z,98901.94
2022-11-15T05:54:33.214Z,98896.97
2022-11-15T05:59:56.472Z,98892.13
2022-11-15T06:05:19.291Z,98899.69
2022-11-15T06:10:40.821Z,98895.31
2022-11-15T06:16:02.403Z,98898.72
2022-11-15T06:21:25.301Z,98900.81
2022-11-15T06:26:46.832Z,98908.41
2022-11-15T06:32:08.186Z,98910.97
2022-11-15T06:37:30.811Z,98916.63
2022-11-15T06:42:52.050Z,98914.06
2022-11-15T06:48:13.252Z,98916.94
2022-11-15T06:53:36.143Z,98914.84
2022-11-15T06:58:57.864Z,98921.09
2022-11-15T07:04:19.307Z,98918.38
2022-11-15T07:09:41.932Z,98913.56
2022-11-15T07:15:03.239Z,98912.91
2022-11-15T07:20:24.497Z,98921.63
2022-11-15T07:25:47.105Z,98921.22
2022-11-15T07:31:10.542Z,98923.44
2022-11-15T07:36:31.810Z,98928.28
2022-11-15T07:42:14.639Z,98922.50
2022-11-15T07:47:35.807Z,98923.19
2022-11-15T07:52:57.541Z,98918.03
2022-11-15T07:58:20.409Z,98919.50
2022-11-15T08:03:42.137Z,98912.94
2022-11-15T08:09:03.618Z,98911.13
2022-11-15T08:14:26.674Z,98910.63
2022-11-15T08:19:48.935Z,98915.19
2022-11-15T08:25:10.399Z,98906.56
2022-11-15T08:30:38.310Z,98903.56
2022-11-15T08:35:59.820Z,98903.19
2022-11-15T08:41:27.887Z,98901.41
2022-11-15T08:46:50.736Z,98888.16
2022-11-15T08:52:12.236Z,98888.03
2022-11-15T08:57:33.730Z,98878.59
2022-11-15T09:02:56.623Z,98882.06
2022-11-15T09:08:46.943Z,98875.66
2022-11-15T09:13:59.427Z,98870.22
2022-11-15T09:19:21.909Z,98866.97
2022-11-15T09:24:43.816Z,98871.09
2022-11-15T09:30:06.141Z,98875.25
2022-11-15T09:35:29.223Z,98870.56
2022-11-15T09:41:21.022Z,98862.91
2022-11-15T09:46:54.596Z,98853.88
2022-11-15T09:51:59.268Z,98852.22
2022-11-15T09:57:10.528Z,98859.75
2022-11-15T10:02:33.360Z,98836.75
2022-11-15T10:07:48.747Z,98834.38
2022-11-15T10:12:53.791Z,98841.50
2022-11-15T10:18:08.841Z,98826.56
2022-11-15T10:23:16.690Z,98826.09
2022-11-15T10:28:27.980Z,98814.66
2022-11-15T10:33:34.781Z,98806.22
2022-11-15T10:38:54.766Z,98799.72
2022-11-15T10:44:13.708Z,98786.56
2022-11-15T10:49:18.439Z,98780.38
2022-11-15T10:54:28.033Z,98781.47
2022-11-15T10:59:38.757Z,98780.06
2022-11-15T11:04:51.922Z,98764.28
2022-11-15T11:10:17.717Z,98749.56
2022-11-15T11:15:31.406Z,98750.41
2022-11-15T11:20:41.383Z,98741.75
2022-11-15T11:25:57.516Z,98739.59
2022-11-15T11:31:14.148Z,98721.09
2022-11-15T11:36:27.539Z,98722.22
2022-11-15T11:41:45.666Z,98725.75
2022-11-15T11:46:57.507Z,98717.53
2022-11-15T11:52:07.570Z,98717.88
2022-11-15T11:57:21.946Z,98707.59
2022-11-15T12:02:31.500Z,98703.28
2022-11-15T12:07:37.250Z,98690.47
2022-11-15T12:12:49.640Z,98678.84
2022-11-15T12:17:53.141Z,98669.47
2022-11-15T12:23:00.196Z,98674.03
2022-11-15T12:28:13.699Z,98665.13
2022-11-15T12:33:35.167Z,98661.69
2022-11-15T12:38:57.607Z,98642.13
2022-11-15T12:44:02.849Z,98640.69
2022-11-15T12:49:12.567Z,98635.09
2022-11-15T12:54:56.814Z,98628.34
2022-11-15T13:00:04.961Z,98625.16
2022-11-15T13:06:00.753Z,98623.00
2022-11-15T13:11:53.150Z,98623.88
2022-11-15T13:17:00.688Z,98616.91
2022-11-15T13:22:29.300Z,98621.03
2022-11-15T13:27:33.257Z,98613.00
2022-11-15T13:32:36.243Z,98614.19
2022-11-15T13:37:40.944Z,98604.66
2022-11-15T13:42:45.892Z,98612.59
2022-11-15T13:47:55.927Z,98605.25
2022-11-15T13:53:04.940Z,98600.91
2022-11-15T13:58:08.108Z,98586.53
2022-11-15T14:03:20.021Z,98596.00
2022-11-15T14:08:26.375Z,98592.88
2022-11-15T14:13:31.352Z,98593.53
2022-11-15T14:18:45.978Z,98587.41
2022-11-15T14:23:51.645Z,98582.63
2022-11-15T14:28:54.638Z,98578.53
2022-11-15T14:33:57.562Z,98582.44
2022-11-15T14:39:02.330Z,98580.09
2022-11-15T14:44:06.356Z,98590.41
2022-11-15T14:49:09.476Z,98584.91
2022-11-15T14:54:13.885Z,98574.03
2022-11-15T14:59:16.819Z,98581.09
2022-11-15T15:04:19.763Z,98573.59
2022-11-15T15:09:24.038Z,98564.16
2022-11-15T15:14:27.001Z,98562.03
2022-11-15T15:19:29.966Z,98560.19
2022-11-15T15:24:34.376Z,98556.44
2022-11-15T15:29:37.359Z,98552.75
2022-11-15T15:34:40.894Z,98554.03
2022-11-15T15:39:45.235Z,98551.00
2022-11-15T15:44:48.211Z,98553.22
2022-11-15T15:49:52.609Z,98549.81
2022-11-15T15:54:56.899Z,98542.44
2022-11-15T15:59:59.813Z,98548.25
2022-11-15T16:05:03.097Z,98537.81
2022-11-15T16:10:19.580Z,98550.25
2022-11-15T16:15:25.062Z,98542.03
2022-11-15T16:20:37.567Z,98543.81
2022-11-15T16:25:44.141Z,98542.03
2022-11-15T16:30:50.000Z,98539.00
2022-11-15T16:35:57.011Z,98532.38
2022-11-15T16:41:01.780Z,98531.41
2022-11-15T16:46:13.540Z,98524.75
2022-11-15T16:51:17.802Z,98517.34
2022-11-15T16:56:25.918Z,98514.75
2022-11-15T17:01:30.613Z,98527.31
2022-11-15T17:06:33.610Z,98522.91
2022-11-15T17:11:38.006Z,98520.31
2022-11-15T17:16:43.535Z,98509.09
2022-11-15T17:21:49.542Z,98496.66
2022-11-15T17:26:53.870Z,98505.06
2022-11-15T17:31:56.930Z,98503.38
2022-11-15T17:37:00.049Z,98514.56
2022-11-15T17:42:04.382Z,98509.59
2022-11-15T17:47:08.555Z,98506.38
2022-11-15T17:52:11.805Z,98492.31
2022-11-15T17:57:16.131Z,98492.53
2022-11-15T18:02:19.503Z,98484.50
2022-11-15T18:07:22.516Z,98485.84
2022-11-15T18:12:26.929Z,98478.00
2022-11-15T18:17:29.815Z,98477.28
2022-11-15T18:22:32.825Z,98471.31
2022-11-15T18:27:38.285Z,98466.13
2022-11-15T18:32:41.226Z,98455.75
2022-11-15T18:37:44.208Z,98457.69
2022-11-15T18:42:48.670Z,98448.22
2022-11-15T18:47:52.344Z,98437.94
2022-11-15T18:52:55.531Z,98440.78
2022-11-15T18:57:59.858Z,98439.09
2022-11-15T19:03:02.807Z,98440.25
2022-11-15T19:08:05.965Z,98439.72
2022-11-15T19:13:10.291Z,98446.31
2022-11-15T19:18:13.255Z,98446.56
2022-11-15T19:23:16.425Z,98449.81
2022-11-15T19:28:20.899Z,98440.53
2022-11-15T19:33:27.647Z,98443.31
2022-11-15T19:38:32.433Z,98445.59
2022-11-15T19:43:37.174Z,98442.47
2022-11-15T19:48:40.728Z,98437.69
2022-11-15T19:53:44.465Z,98423.47
2022-11-15T19:58:52.117Z,98426.00
2022-11-15T20:03:57.827Z,98431.19
2022-11-15T20:09:01.107Z,98424.97
2022-11-15T20:14:06.591Z,98420.34
2022-11-15T20:19:12.309Z,98428.72
2022-11-15T20:24:16.276Z,98433.75
2022-11-15T20:29:21.196Z,98411.13
2022-11-15T20:34:24.230Z,98411.00
2022-11-15T20:39:27.340Z,98414.06
2022-11-15T20:44:31.800Z,98406.31
2022-11-15T20:49:34.874Z,98405.75
2022-11-15T20:54:38.237Z,98404.75
2022-11-15T20:59:42.509Z,98405.69
2022-11-15T21:04:45.643Z,98397.38
2022-11-15T21:10:06.666Z,98392.34
2022-11-15T21:15:12.194Z,98382.66
2022-11-15T21:20:16.314Z,98381.34
2022-11-15T21:25:19.264Z,98374.06
2022-11-15T21:30:23.557Z,98366.09
2022-11-15T21:35:26.474Z,98379.63
2022-11-15T21:40:29.402Z,98373.44
2022-11-15T21:45:33.918Z,98349.31
2022-11-15T21:50:36.942Z,98342.31
2022-11-15T21:55:40.442Z,98337.63
2022-11-15T22:01:02.105Z,98337.88
2022-11-15T22:06:06.966Z,98338.38
2022-11-15T22:11:10.238Z,98341.84
2022-11-15T22:16:14.651Z,98341.84
2022-11-15T22:21:19.095Z,98340.66
2022-11-15T22:26:24.073Z,98329.59
2022-11-15T22:31:28.694Z,98319.28
2022-11-15T22:36:46.831Z,98308.16
2022-11-15T22:41:55.148Z,98294.13
2022-11-15T22:46:59.511Z,98279.22
2022-11-15T22:52:02.514Z,98276.53
2022-11-15T22:57:05.607Z,98277.31
2022-11-15T23:02:09.999Z,98273.50
2022-11-15T23:07:13.135Z,98267.50
2022-11-15T23:12:33.493Z,98263.03
2022-11-15T23:17:38.303Z,98258.91
2022-11-15T23:22:57.733Z,98244.63
2022-11-15T23:28:02.738Z,98234.13
2022-11-15T23:33:24.511Z,98227.38
2022-11-15T23:38:27.548Z,98238.41
2022-11-15T23:43:30.733Z,98230.56
2022-11-15T23:48:35.435Z,98228.22
2022-11-15T23:53:38.615Z,98220.84
2022-11-15T23:58:42.320Z,98227.66
